Time;durP1;ratioP1;P1;durP2;ratioP2;P2;SDS_P1;SDS_P2;PMS_P1;PMS_P2;Temp;Humidity;BMP_temperature;BMP_pressure;BME280_temperature;BME280_humidity;BME280_pressure;Samples;Min_cycle;Max_cycle;Signal;HPM_P1;HPM_P2
2021/05/01 00:01:38;;;;;;;63.07;45.63;;;;;;;;;;5006649;28;20228;-63
2021/05/01 00:04:04;;;;;;;58.40;42.13;;;;;;;;;;5005957;28;20196;-62
2021/05/01 00:06:30;;;;;;;61.90;44.30;;;;;;;;;;5010970;28;20196;-62
2021/05/01 00:08:56;;;;;;;60.53;43.67;;;;;;;;;;5025380;28;20189;-63
2021/05/01 00:11:23;;;;;;;58.17;43.03;;;;;;;;;;5015884;28;20572;-61
2021/05/01 00:13:50;;;;;;;56.90;41.73;;;;;;;;;;5006874;28;20260;-62
2021/05/01 00:16:16;;;;;;;62.60;42.87;;;;;;;;;;5002068;28;20210;-62
2021/05/01 00:18:42;;;;;;;56.40;42.73;;;;;;;;;;5002611;28;20293;-61
2021/05/01 00:21:08;;;;;;;58.73;42.03;;;;;;;;;;5001765;28;20205;-63
2021/05/01 00:23:34;;;;;;;60.07;43.80;;;;;;;;;;5001031;28;20204;-61
2021/05/01 00:26:00;;;;;;;61.90;44.43;;;;;;;;;;5002407;28;20657;-63
2021/05/01 00:28:26;;;;;;;62.20;44.80;;;;;;;;;;5005103;28;20239;-62
2021/05/01 00:30:52;;;;;;;59.07;44.20;;;;;;;;;;4995970;28;20232;-60
2021/05/01 00:33:18;;;;;;;57.13;43.43;;;;;;;;;;5006882;28;20187;-62
2021/05/01 00:35:45;;;;;;;60.83;45.33;;;;;;;;;;5002296;28;20217;-63
2021/05/01 00:38:11;;;;;;;57.03;45.03;;;;;;;;;;5005776;28;20680;-64
2021/05/01 00:40:37;;;;;;;60.30;43.57;;;;;;;;;;5004859;28;20215;-63
2021/05/01 00:43:03;;;;;;;58.23;44.23;;;;;;;;;;5002407;28;20243;-61
2021/05/01 00:45:29;;;;;;;57.87;42.93;;;;;;;;;;5013772;28;20221;-63
2021/05/01 00:47:55;;;;;;;59.80;43.63;;;;;;;;;;5002672;28;20183;-62
2021/05/01 00:50:21;;;;;;;57.70;43.23;;;;;;;;;;4998748;28;20284;-60
2021/05/01 00:52:48;;;;;;;63.97;45.13;;;;;;;;;;4998718;28;20209;-61
2021/05/01 00:55:14;;;;;;;63.43;44.27;;;;;;;;;;5002720;28;20193;-60
2021/05/01 00:57:40;;;;;;;63.83;44.23;;;;;;;;;;4997394;28;20226;-61
2021/05/01 01:02:57;;;;;;;64.30;44.27;;;;;;;;;;5001438;28;20247;-61
2021/05/01 01:05:23;;;;;;;60.87;44.37;;;;;;;;;;5002386;28;20177;-62
2021/05/01 01:07:49;;;;;;;59.93;44.60;;;;;;;;;;4997242;28;20188;-60
2021/05/01 01:10:15;;;;;;;58.20;44.67;;;;;;;;;;5005156;28;20210;-63
2021/05/01 01:12:41;;;;;;;59.57;43.50;;;;;;;;;;5003966;28;20226;-61
2021/05/01 01:15:07;;;;;;;56.50;43.13;;;;;;;;;;5005136;28;20222;-62
2021/05/01 01:17:33;;;;;;;57.30;44.40;;;;;;;;;;5005293;28;20228;-63
2021/05/01 01:19:59;;;;;;;58.27;44.10;;;;;;;;;;5000884;28;20208;-63
2021/05/01 01:22:25;;;;;;;56.70;43.20;;;;;;;;;;5000385;28;20260;-61
2021/05/01 01:24:51;;;;;;;57.93;44.57;;;;;;;;;;5006251;28;20346;-64
2021/05/01 01:27:18;;;;;;;54.17;41.93;;;;;;;;;;5006550;28;20197;-62
2021/05/01 01:29:45;;;;;;;61.40;45.57;;;;;;;;;;4999329;28;20204;-63
2021/05/01 01:32:13;;;;;;;58.50;44.03;;;;;;;;;;5007639;28;20204;-62
2021/05/01 01:34:45;;;;;;;55.23;43.97;;;;;;;;;;4998166;28;20319;-61
2021/05/01 01:37:11;;;;;;;53.87;43.03;;;;;;;;;;5002930;28;20246;-63
2021/05/01 01:39:37;;;;;;;53.93;41.50;;;;;;;;;;4992690;28;20201;-61
2021/05/01 01:42:04;;;;;;;54.50;42.90;;;;;;;;;;4992307;28;20263;-61
2021/05/01 01:44:30;;;;;;;53.67;41.67;;;;;;;;;;4998634;28;20193;-63
2021/05/01 01:46:56;;;;;;;54.30;43.83;;;;;;;;;;5003159;28;20202;-63
2021/05/01 01:49:22;;;;;;;53.03;42.90;;;;;;;;;;4993734;28;21176;-60
2021/05/01 01:51:48;;;;;;;55.67;43.50;;;;;;;;;;5002838;28;20552;-60
2021/05/01 01:54:14;;;;;;;53.17;42.33;;;;;;;;;;4999652;28;20200;-62
2021/05/01 01:56:40;;;;;;;54.87;41.07;;;;;;;;;;5001999;28;20192;-62
2021/05/01 01:59:06;;;;;;;54.03;43.27;;;;;;;;;;4999655;28;20200;-62
2021/05/01 02:01:33;;;;;;;52.60;41.80;;;;;;;;;;5004524;28;20195;-63
2021/05/01 02:03:59;;;;;;;48.13;41.00;;;;;;;;;;5005586;28;20276;-62
2021/05/01 02:06:25;;;;;;;48.27;40.33;;;;;;;;;;5007282;28;20698;-63
2021/05/01 02:08:51;;;;;;;51.57;40.43;;;;;;;;;;5000816;28;20251;-62
2021/05/01 02:11:18;;;;;;;51.10;40.73;;;;;;;;;;4997411;28;20243;-62
2021/05/01 02:13:44;;;;;;;50.27;41.30;;;;;;;;;;5002679;28;20220;-62
2021/05/01 02:16:10;;;;;;;49.60;41.03;;;;;;;;;;4996943;28;20557;-63
2021/05/01 02:18:36;;;;;;;49.63;41.67;;;;;;;;;;5003901;28;20213;-62
2021/05/01 02:21:02;;;;;;;49.60;41.20;;;;;;;;;;4998791;28;20247;-63
2021/05/01 02:23:28;;;;;;;49.60;41.73;;;;;;;;;;5001879;28;20182;-63
2021/05/01 02:25:54;;;;;;;49.97;40.80;;;;;;;;;;4997163;28;20185;-63
2021/05/01 02:28:20;;;;;;;46.37;39.23;;;;;;;;;;5001074;28;20201;-64
2021/05/01 02:30:46;;;;;;;50.07;40.50;;;;;;;;;;5006820;28;20660;-61
2021/05/01 02:33:13;;;;;;;50.47;41.67;;;;;;;;;;5012937;28;20197;-63
2021/05/01 02:35:40;;;;;;;44.70;39.17;;;;;;;;;;4997966;28;20690;-62
2021/05/01 02:38:06;;;;;;;46.97;39.83;;;;;;;;;;5006156;28;20230;-62
2021/05/01 02:40:32;;;;;;;48.77;39.97;;;;;;;;;;5001976;28;20212;-62
2021/05/01 02:43:02;;;;;;;52.00;40.60;;;;;;;;;;5004325;28;20205;-61
2021/05/01 02:45:28;;;;;;;50.80;39.87;;;;;;;;;;5004251;28;20189;-62
2021/05/01 02:47:54;;;;;;;50.40;39.73;;;;;;;;;;5007690;28;20605;-63
2021/05/01 02:50:20;;;;;;;50.20;41.40;;;;;;;;;;5001893;28;20696;-61
2021/05/01 02:52:46;;;;;;;47.27;38.53;;;;;;;;;;5000303;28;20227;-62
2021/05/01 02:55:12;;;;;;;45.80;38.87;;;;;;;;;;5005382;28;20203;-63
2021/05/01 02:57:39;;;;;;;52.20;42.03;;;;;;;;;;5002314;28;20214;-62
2021/05/01 03:00:07;;;;;;;45.90;39.17;;;;;;;;;;4999270;28;20208;-61
2021/05/01 03:02:33;;;;;;;47.27;39.10;;;;;;;;;;5005735;28;20193;-61
2021/05/01 03:04:59;;;;;;;45.97;38.97;;;;;;;;;;5008094;28;20244;-64
2021/05/01 03:07:26;;;;;;;45.40;37.43;;;;;;;;;;5006713;28;20206;-64
2021/05/01 03:09:52;;;;;;;44.30;38.17;;;;;;;;;;5005852;28;20239;-63
2021/05/01 03:12:18;;;;;;;43.23;37.13;;;;;;;;;;5002817;28;20193;-61
2021/05/01 03:14:45;;;;;;;44.17;37.17;;;;;;;;;;5000049;28;20244;-61
2021/05/01 03:17:11;;;;;;;42.73;36.43;;;;;;;;;;5006320;28;20298;-62
2021/05/01 03:19:37;;;;;;;39.57;34.87;;;;;;;;;;5001985;28;20211;-63
2021/05/01 03:22:04;;;;;;;42.50;35.37;;;;;;;;;;5008377;28;20181;-62
2021/05/01 03:24:31;;;;;;;43.67;37.23;;;;;;;;;;5008289;28;20192;-61
2021/05/01 03:26:57;;;;;;;47.23;37.70;;;;;;;;;;5002364;28;20203;-63
2021/05/01 03:29:23;;;;;;;46.57;37.07;;;;;;;;;;5001818;28;20832;-62
2021/05/01 03:31:49;;;;;;;44.90;39.07;;;;;;;;;;5008622;28;20194;-63
2021/05/01 03:34:15;;;;;;;49.80;39.97;;;;;;;;;;5005714;28;20564;-62
2021/05/01 03:36:41;;;;;;;47.60;38.83;;;;;;;;;;4998346;28;20188;-63
2021/05/01 03:39:07;;;;;;;49.53;39.33;;;;;;;;;;5009488;28;20213;-64
2021/05/01 03:41:34;;;;;;;50.80;40.97;;;;;;;;;;5001292;28;20605;-61
2021/05/01 03:43:59;;;;;;;48.87;40.70;;;;;;;;;;5004126;28;20218;-64
2021/05/01 03:46:26;;;;;;;48.67;41.53;;;;;;;;;;5001239;28;20619;-62
2021/05/01 03:48:52;;;;;;;50.20;40.17;;;;;;;;;;5004486;28;20208;-61
2021/05/01 03:51:18;;;;;;;50.20;41.80;;;;;;;;;;4990711;28;20213;-61
2021/05/01 03:53:45;;;;;;;51.43;42.87;;;;;;;;;;5016448;28;20619;-62
2021/05/01 03:56:11;;;;;;;48.17;40.17;;;;;;;;;;5023207;28;20196;-62
2021/05/01 03:58:37;;;;;;;52.00;42.67;;;;;;;;;;5019397;28;20219;-62
2021/05/01 04:01:03;;;;;;;53.50;42.17;;;;;;;;;;5005112;28;20684;-61
2021/05/01 04:03:29;;;;;;;56.40;44.40;;;;;;;;;;5003402;28;20656;-61
2021/05/01 04:05:55;;;;;;;53.63;43.10;;;;;;;;;;5005671;28;20218;-62
2021/05/01 04:08:21;;;;;;;59.63;45.93;;;;;;;;;;5003031;28;20507;-62
2021/05/01 04:10:47;;;;;;;56.60;42.17;;;;;;;;;;5004454;28;20215;-62
2021/05/01 04:13:13;;;;;;;53.90;43.87;;;;;;;;;;4996860;28;20185;-63
2021/05/01 04:15:39;;;;;;;54.10;44.00;;;;;;;;;;4993989;28;20189;-63
2021/05/01 04:18:05;;;;;;;54.70;42.77;;;;;;;;;;4999600;28;20274;-61
2021/05/01 04:20:31;;;;;;;55.87;44.13;;;;;;;;;;5001777;28;20208;-60
2021/05/01 04:22:57;;;;;;;51.90;41.83;;;;;;;;;;5004622;28;20489;-64
2021/05/01 04:25:23;;;;;;;51.07;42.23;;;;;;;;;;5002375;28;20186;-63
2021/05/01 04:27:49;;;;;;;52.03;41.87;;;;;;;;;;5007943;28;20263;-63
2021/05/01 04:30:16;;;;;;;51.10;42.37;;;;;;;;;;5005122;28;20267;-61
2021/05/01 04:32:42;;;;;;;52.83;44.20;;;;;;;;;;5016830;28;20185;-63
2021/05/01 04:35:08;;;;;;;51.37;42.10;;;;;;;;;;4998672;28;20187;-64
2021/05/01 04:37:34;;;;;;;49.47;41.00;;;;;;;;;;5000661;28;20216;-61
2021/05/01 04:40:00;;;;;;;47.33;41.07;;;;;;;;;;4999171;28;20209;-61
2021/05/01 04:42:26;;;;;;;53.40;43.40;;;;;;;;;;4998308;28;20249;-62
2021/05/01 04:44:52;;;;;;;51.60;41.97;;;;;;;;;;5004734;28;20184;-60
2021/05/01 04:47:18;;;;;;;51.07;42.70;;;;;;;;;;5001520;28;20221;-61
2021/05/01 04:49:44;;;;;;;49.30;42.47;;;;;;;;;;5004437;28;20630;-63
2021/05/01 04:52:10;;;;;;;50.83;45.27;;;;;;;;;;5003725;28;20682;-63
2021/05/01 04:54:36;;;;;;;47.80;40.93;;;;;;;;;;4999175;28;20293;-60
2021/05/01 04:57:02;;;;;;;50.77;41.10;;;;;;;;;;5000505;28;20295;-64
2021/05/01 04:59:28;;;;;;;44.27;38.33;;;;;;;;;;5001714;28;20209;-64
2021/05/01 05:01:54;;;;;;;48.33;40.90;;;;;;;;;;5000043;28;20190;-62
2021/05/01 05:04:20;;;;;;;45.20;40.30;;;;;;;;;;5002137;28;20645;-62
2021/05/01 05:06:46;;;;;;;46.90;38.97;;;;;;;;;;5007973;28;20236;-62
2021/05/01 05:09:12;;;;;;;45.60;39.67;;;;;;;;;;4998941;28;20181;-61
2021/05/01 05:11:38;;;;;;;43.43;37.77;;;;;;;;;;5005565;28;20192;-61
2021/05/01 05:14:04;;;;;;;41.13;36.67;;;;;;;;;;4998721;28;20189;-61
2021/05/01 05:16:31;;;;;;;41.17;35.33;;;;;;;;;;5004223;28;20196;-61
2021/05/01 05:18:57;;;;;;;40.87;36.27;;;;;;;;;;5002760;28;20254;-62
2021/05/01 05:21:23;;;;;;;39.60;33.87;;;;;;;;;;4996055;28;20200;-63
2021/05/01 05:23:50;;;;;;;38.83;34.67;;;;;;;;;;4998714;28;20268;-63
2021/05/01 05:26:16;;;;;;;37.87;33.73;;;;;;;;;;5000498;28;20213;-62
2021/05/01 05:28:42;;;;;;;39.70;35.43;;;;;;;;;;4999046;28;20189;-64
2021/05/01 05:31:08;;;;;;;37.60;33.53;;;;;;;;;;5001401;28;20711;-62
2021/05/01 05:33:34;;;;;;;37.30;33.37;;;;;;;;;;4998505;28;20200;-63
2021/05/01 05:36:00;;;;;;;37.53;33.53;;;;;;;;;;5003713;28;20200;-63
2021/05/01 05:38:26;;;;;;;32.50;29.10;;;;;;;;;;4998875;28;20292;-63
2021/05/01 05:40:52;;;;;;;30.83;27.70;;;;;;;;;;4998883;28;20284;-62
2021/05/01 05:43:18;;;;;;;33.27;29.63;;;;;;;;;;5004407;28;20663;-63
2021/05/01 05:45:46;;;;;;;35.07;31.43;;;;;;;;;;5004974;28;20187;-64
2021/05/01 05:48:12;;;;;;;34.80;31.00;;;;;;;;;;5014238;28;20209;-63
2021/05/01 05:50:38;;;;;;;34.63;31.03;;;;;;;;;;5006368;28;20221;-61
2021/05/01 05:53:05;;;;;;;35.70;32.13;;;;;;;;;;4997855;28;20235;-63
2021/05/01 05:55:31;;;;;;;35.67;31.90;;;;;;;;;;4995666;28;20772;-63
2021/05/01 05:57:57;;;;;;;33.87;30.30;;;;;;;;;;4998968;28;20205;-62
2021/05/01 06:00:24;;;;;;;34.27;30.83;;;;;;;;;;4998393;28;20345;-62
2021/05/01 06:02:51;;;;;;;33.40;29.87;;;;;;;;;;4994345;28;20185;-62
2021/05/01 06:05:25;;;;;;;31.70;28.50;;;;;;;;;;4996609;28;20278;-63
2021/05/01 06:07:52;;;;;;;34.40;30.87;;;;;;;;;;5000006;28;20197;-62
2021/05/01 06:10:18;;;;;;;33.67;30.27;;;;;;;;;;5001581;28;21625;-62
2021/05/01 06:12:45;;;;;;;36.27;32.57;;;;;;;;;;5000365;28;20197;-64
2021/05/01 06:15:13;;;;;;;36.17;32.37;;;;;;;;;;5003184;28;20192;-64
2021/05/01 06:17:39;;;;;;;34.90;31.37;;;;;;;;;;5003242;28;20753;-63
2021/05/01 06:20:07;;;;;;;34.53;31.03;;;;;;;;;;5006822;28;20287;-62
2021/05/01 06:22:33;;;;;;;33.67;30.27;;;;;;;;;;4995939;28;20201;-63
2021/05/01 06:25:00;;;;;;;32.83;29.37;;;;;;;;;;5003901;28;20208;-62
2021/05/01 06:27:26;;;;;;;31.40;28.23;;;;;;;;;;5011847;28;20193;-62
2021/05/01 06:29:52;;;;;;;31.03;27.87;;;;;;;;;;5004280;28;20211;-63
2021/05/01 06:32:21;;;;;;;34.37;30.77;;;;;;;;;;5008428;28;20605;-63
2021/05/01 06:34:52;;;;;;;30.93;27.77;;;;;;;;;;5009720;28;20201;-63
2021/05/01 06:37:19;;;;;;;34.87;31.17;;;;;;;;;;5005809;28;20263;-63
2021/05/01 06:39:46;;;;;;;32.43;29.03;;;;;;;;;;5005466;28;20213;-65
2021/05/01 06:42:30;;;;;;;32.20;28.67;;;;;;;;;;5004365;28;20185;-62
2021/05/01 06:45:04;;;;;;;30.47;27.37;;;;;;;;;;5010439;28;20527;-63
2021/05/01 06:47:31;;;;;;;27.53;24.53;;;;;;;;;;5009492;28;20235;-63
2021/05/01 06:50:03;;;;;;;24.57;21.93;;;;;;;;;;5007669;28;20216;-63
2021/05/01 06:52:30;;;;;;;27.30;22.50;;;;;;;;;;5008787;28;20193;-63
2021/05/01 06:54:59;;;;;;;23.80;21.47;;;;;;;;;;5002018;28;20681;-63
2021/05/01 06:57:26;;;;;;;22.80;20.50;;;;;;;;;;5003341;28;20217;-60
2021/05/01 06:59:53;;;;;;;24.13;21.70;;;;;;;;;;5004087;28;20248;-61
2021/05/01 07:02:22;;;;;;;26.60;23.90;;;;;;;;;;5009666;28;20271;-62
2021/05/01 07:04:51;;;;;;;26.67;23.93;;;;;;;;;;5003035;28;21263;-62
2021/05/01 07:07:18;;;;;;;28.83;25.87;;;;;;;;;;5004414;28;20707;-63
2021/05/01 07:09:44;;;;;;;26.27;23.63;;;;;;;;;;5007831;28;20295;-64
2021/05/01 07:12:11;;;;;;;28.23;25.40;;;;;;;;;;4995918;28;20759;-65
2021/05/01 07:14:38;;;;;;;24.73;22.33;;;;;;;;;;5000830;28;20651;-63
2021/05/01 07:17:06;;;;;;;25.53;22.83;;;;;;;;;;5000942;28;20192;-64
2021/05/01 07:19:32;;;;;;;23.33;20.93;;;;;;;;;;5003686;28;20301;-63
2021/05/01 07:21:58;;;;;;;23.47;21.17;;;;;;;;;;5005190;28;20629;-62
2021/05/01 07:24:26;;;;;;;25.33;22.73;;;;;;;;;;5003500;28;20265;-64
2021/05/01 07:26:54;;;;;;;24.67;22.13;;;;;;;;;;4999776;28;20200;-64
2021/05/01 07:29:20;;;;;;;21.30;19.20;;;;;;;;;;5008565;28;20260;-63
2021/05/01 07:31:47;;;;;;;22.10;19.70;;;;;;;;;;5006924;28;20648;-62
2021/05/01 07:34:19;;;;;;;21.83;19.57;;;;;;;;;;5003329;28;20189;-63
2021/05/01 07:36:46;;;;;;;22.60;20.30;;;;;;;;;;5003449;28;20189;-63
2021/05/01 07:39:12;;;;;;;21.27;19.07;;;;;;;;;;5003955;28;20212;-63
2021/05/01 07:41:43;;;;;;;18.97;17.17;;;;;;;;;;5007440;28;20564;-62
2021/05/01 07:44:09;;;;;;;22.00;19.90;;;;;;;;;;5005763;28;20186;-62
2021/05/01 07:46:38;;;;;;;21.83;19.57;;;;;;;;;;5008966;28;20181;-64
2021/05/01 07:49:05;;;;;;;23.83;21.37;;;;;;;;;;5006137;28;20195;-62
2021/05/01 07:51:34;;;;;;;21.10;19.00;;;;;;;;;;5001172;28;20201;-63
2021/05/01 07:54:00;;;;;;;21.10;19.00;;;;;;;;;;5011806;28;20645;-62
2021/05/01 07:56:26;;;;;;;20.53;18.57;;;;;;;;;;5002748;28;20905;-63
2021/05/01 07:58:52;;;;;;;20.00;18.10;;;;;;;;;;5007184;28;20217;-62
2021/05/01 08:01:18;;;;;;;22.73;20.53;;;;;;;;;;5004949;28;20197;-64
2021/05/01 08:03:47;;;;;;;21.67;19.53;;;;;;;;;;5001083;28;20185;-62
2021/05/01 08:06:13;;;;;;;25.33;20.40;;;;;;;;;;4997286;28;20332;-63
2021/05/01 08:08:39;;;;;;;19.53;17.63;;;;;;;;;;5003200;28;20711;-64
2021/05/01 08:11:05;;;;;;;20.67;18.67;;;;;;;;;;5004398;28;20220;-62
2021/05/01 08:13:31;;;;;;;19.07;16.83;;;;;;;;;;5006702;28;20194;-62
2021/05/01 08:15:57;;;;;;;19.23;17.43;;;;;;;;;;5004179;28;20200;-63
2021/05/01 08:18:23;;;;;;;20.63;18.67;;;;;;;;;;5002156;28;20695;-63
2021/05/01 08:20:50;;;;;;;23.77;21.43;;;;;;;;;;5010945;28;20233;-62
2021/05/01 08:23:16;;;;;;;25.43;22.80;;;;;;;;;;5003526;28;20198;-65
2021/05/01 08:25:42;;;;;;;25.20;22.60;;;;;;;;;;5003644;28;20197;-62
2021/05/01 08:28:08;;;;;;;25.77;23.27;;;;;;;;;;4999540;28;20669;-62
2021/05/01 08:30:34;;;;;;;21.93;19.83;;;;;;;;;;5009400;28;20216;-61
2021/05/01 08:33:01;;;;;;;21.10;19.07;;;;;;;;;;5003040;28;20197;-63
2021/05/01 08:35:27;;;;;;;22.13;20.03;;;;;;;;;;4998698;28;20201;-63
2021/05/01 08:37:53;;;;;;;20.53;18.53;;;;;;;;;;5001211;28;20591;-64
2021/05/01 08:40:19;;;;;;;23.13;20.83;;;;;;;;;;5000937;28;20580;-62
2021/05/01 08:42:46;;;;;;;27.30;24.57;;;;;;;;;;5002275;28;20207;-63
2021/05/01 08:45:12;;;;;;;27.33;24.53;;;;;;;;;;5006322;28;20272;-62
2021/05/01 08:47:40;;;;;;;31.30;28.10;;;;;;;;;;5003862;28;20652;-62
2021/05/01 08:50:08;;;;;;;32.20;28.90;;;;;;;;;;4997873;28;20552;-63
2021/05/01 08:52:36;;;;;;;31.17;28.13;;;;;;;;;;5005334;28;20196;-64
2021/05/01 08:55:02;;;;;;;32.53;29.20;;;;;;;;;;5005218;28;20539;-63
2021/05/01 08:57:29;;;;;;;32.00;28.80;;;;;;;;;;5000805;28;20232;-62
2021/05/01 08:59:55;;;;;;;32.73;29.23;;;;;;;;;;5002243;28;20786;-61
2021/05/01 09:02:23;;;;;;;29.70;26.90;;;;;;;;;;5008718;28;20225;-61
2021/05/01 09:04:50;;;;;;;29.17;26.17;;;;;;;;;;4999786;28;20680;-61
2021/05/01 09:07:17;;;;;;;29.30;26.40;;;;;;;;;;5005835;28;20550;-65
2021/05/01 09:09:44;;;;;;;29.17;26.27;;;;;;;;;;4999551;28;20251;-60
2021/05/01 09:12:11;;;;;;;28.20;25.50;;;;;;;;;;5002745;28;20190;-62
2021/05/01 09:14:37;;;;;;;27.70;25.10;;;;;;;;;;5009893;28;20383;-62
2021/05/01 09:17:04;;;;;;;32.27;24.77;;;;;;;;;;5001272;28;20193;-63
2021/05/01 09:19:30;;;;;;;26.97;24.13;;;;;;;;;;4999325;28;20282;-62
2021/05/01 09:22:23;;;;;;;23.60;21.43;;;;;;;;;;5005810;28;20561;-63
2021/05/01 09:24:49;;;;;;;24.10;21.87;;;;;;;;;;5007611;28;20196;-63
2021/05/01 09:27:15;;;;;;;24.08;21.70;;;;;;;;;;5004429;28;20266;-63
2021/05/01 09:29:42;;;;;;;22.98;20.80;;;;;;;;;;5003733;28;20315;-63
2021/05/01 09:32:19;;;;;;;23.75;20.98;;;;;;;;;;5003960;28;20263;-64
2021/05/01 09:34:52;;;;;;;23.30;20.90;;;;;;;;;;5006780;28;20564;-63
2021/05/01 09:37:19;;;;;;;24.27;21.88;;;;;;;;;;5007130;28;20205;-63
2021/05/01 09:39:48;;;;;;;24.48;22.17;;;;;;;;;;5012294;28;20212;-63
2021/05/01 09:42:16;;;;;;;26.23;23.42;;;;;;;;;;4999669;28;20277;-63
2021/05/01 09:44:42;;;;;;;23.50;21.15;;;;;;;;;;5007186;28;20571;-63
2021/05/01 09:47:12;;;;;;;23.83;21.33;;;;;;;;;;5004461;28;20232;-62
2021/05/01 09:49:38;;;;;;;22.25;20.20;;;;;;;;;;5009550;28;20204;-63
2021/05/01 09:52:10;;;;;;;23.27;21.02;;;;;;;;;;5004297;28;20185;-62
2021/05/01 09:54:43;;;;;;;22.35;20.27;;;;;;;;;;5011682;28;20276;-63
2021/05/01 09:57:10;;;;;;;23.38;21.27;;;;;;;;;;5012650;28;20555;-61
2021/05/01 09:59:39;;;;;;;21.70;19.80;;;;;;;;;;5006359;28;20943;-62
2021/05/01 10:02:05;;;;;;;21.33;19.40;;;;;;;;;;5004176;28;20246;-60
2021/05/01 10:04:31;;;;;;;21.92;19.92;;;;;;;;;;5009918;28;20228;-60
2021/05/01 10:06:59;;;;;;;27.35;24.77;;;;;;;;;;5005546;28;20276;-63
2021/05/01 10:09:28;;;;;;;23.90;21.70;;;;;;;;;;5009954;28;20738;-63
2021/05/01 10:12:02;;;;;;;21.27;19.27;;;;;;;;;;5009747;28;20184;-63
2021/05/01 10:14:47;;;;;;;22.83;20.73;;;;;;;;;;5007251;28;20177;-64
2021/05/01 10:17:14;;;;;;;21.23;19.33;;;;;;;;;;5007082;28;20196;-64
2021/05/01 10:20:01;;;;;;;20.33;18.33;;;;;;;;;;5006132;28;20204;-63
2021/05/01 10:22:28;;;;;;;19.80;17.92;;;;;;;;;;5011054;28;20254;-63
2021/05/01 10:24:55;;;;;;;19.70;17.98;;;;;;;;;;5005093;28;20197;-62
2021/05/01 10:27:21;;;;;;;20.60;18.70;;;;;;;;;;5008970;28;20201;-63
2021/05/01 10:30:06;;;;;;;21.27;19.30;;;;;;;;;;5006065;28;20222;-63
2021/05/01 10:32:40;;;;;;;21.80;19.70;;;;;;;;;;5008387;28;20320;-64
2021/05/01 10:35:07;;;;;;;20.98;19.08;;;;;;;;;;5005977;28;20571;-64
2021/05/01 10:37:37;;;;;;;21.80;19.63;;;;;;;;;;5006768;28;20288;-64
2021/05/01 10:40:03;;;;;;;22.83;20.63;;;;;;;;;;5001484;28;20358;-65
2021/05/01 10:42:29;;;;;;;21.05;18.95;;;;;;;;;;5008246;28;20182;-62
2021/05/01 10:45:02;;;;;;;22.23;20.13;;;;;;;;;;5008876;28;20185;-62
2021/05/01 10:47:28;;;;;;;21.42;19.35;;;;;;;;;;5005629;28;20189;-63
2021/05/01 10:49:59;;;;;;;22.65;20.55;;;;;;;;;;5008475;28;20205;-62
2021/05/01 10:52:25;;;;;;;23.38;21.17;;;;;;;;;;5001961;28;20186;-64
2021/05/01 10:55:05;;;;;;;21.85;19.73;;;;;;;;;;4999032;28;20196;-64
2021/05/01 10:57:32;;;;;;;22.00;19.90;;;;;;;;;;5005894;28;20270;-63
2021/05/01 11:00:04;;;;;;;23.00;20.77;;;;;;;;;;5008327;28;20197;-61
2021/05/01 11:02:37;;;;;;;23.90;21.25;;;;;;;;;;5006207;28;20304;-63
2021/05/01 11:05:05;;;;;;;23.08;20.88;;;;;;;;;;5002338;28;20192;-62
2021/05/01 11:07:35;;;;;;;23.88;21.40;;;;;;;;;;5005511;28;20570;-63
2021/05/01 11:10:05;;;;;;;23.33;20.88;;;;;;;;;;4997745;28;20216;-63
2021/05/01 11:12:35;;;;;;;24.20;21.85;;;;;;;;;;5005413;28;20208;-64
2021/05/01 11:15:08;;;;;;;23.55;21.27;;;;;;;;;;5005508;28;20564;-64
2021/05/01 11:17:36;;;;;;;23.27;21.17;;;;;;;;;;5007057;28;20710;-62
2021/05/01 11:20:02;;;;;;;22.30;20.20;;;;;;;;;;4999375;28;20243;-64
2021/05/01 11:22:28;;;;;;;22.67;20.60;;;;;;;;;;5005176;28;20181;-65
2021/05/01 11:24:57;;;;;;;23.10;20.83;;;;;;;;;;5006495;28;20177;-63
2021/05/01 11:27:23;;;;;;;22.58;20.33;;;;;;;;;;5002145;28;20193;-64
2021/05/01 11:29:50;;;;;;;24.45;22.08;;;;;;;;;;4999318;28;20210;-64
2021/05/01 11:32:17;;;;;;;23.35;20.92;;;;;;;;;;5010272;28;20189;-63
2021/05/01 11:34:46;;;;;;;24.80;22.40;;;;;;;;;;5008464;28;20187;-62
2021/05/01 11:37:12;;;;;;;26.83;24.25;;;;;;;;;;5016568;28;20199;-62
2021/05/01 11:39:39;;;;;;;25.45;22.85;;;;;;;;;;5004371;28;20209;-63
2021/05/01 11:42:05;;;;;;;26.83;24.23;;;;;;;;;;5008162;28;20172;-64
2021/05/01 11:44:32;;;;;;;26.05;23.45;;;;;;;;;;5001801;28;20185;-63
2021/05/01 11:46:59;;;;;;;26.08;23.67;;;;;;;;;;5006180;28;20186;-64
2021/05/01 11:49:26;;;;;;;25.85;23.42;;;;;;;;;;5006835;28;20211;-62
2021/05/01 11:52:02;;;;;;;27.35;24.75;;;;;;;;;;5007347;28;20573;-62
2021/05/01 11:54:46;;;;;;;25.77;23.45;;;;;;;;;;5005027;28;20188;-62
2021/05/01 11:57:16;;;;;;;25.23;22.88;;;;;;;;;;4999758;28;20207;-63
2021/05/01 11:59:43;;;;;;;26.25;23.73;;;;;;;;;;5004587;28;20200;-64
2021/05/01 12:02:09;;;;;;;26.13;23.70;;;;;;;;;;5005794;28;20188;-63
2021/05/01 12:04:49;;;;;;;27.90;25.10;;;;;;;;;;5009195;28;20185;-62
2021/05/01 12:07:20;;;;;;;26.67;24.08;;;;;;;;;;5009922;28;20647;-64
2021/05/01 12:09:48;;;;;;;26.30;23.80;;;;;;;;;;4997854;28;20639;-63
2021/05/01 12:12:14;;;;;;;38.25;33.17;;;;;;;;;;5000545;28;20239;-63
2021/05/01 12:14:41;;;;;;;27.88;25.17;;;;;;;;;;5005747;28;20189;-61
2021/05/01 12:17:11;;;;;;;26.70;24.17;;;;;;;;;;5003018;28;20189;-64
2021/05/01 12:19:41;;;;;;;26.65;24.13;;;;;;;;;;5004817;28;20607;-64
2021/05/01 12:22:22;;;;;;;26.15;23.48;;;;;;;;;;5005306;28;20191;-63
2021/05/01 12:24:48;;;;;;;27.00;24.48;;;;;;;;;;4997044;28;20719;-63
2021/05/01 12:27:34;;;;;;;24.95;22.33;;;;;;;;;;5003082;28;20243;-65
2021/05/01 12:30:00;;;;;;;26.58;23.77;;;;;;;;;;5001418;28;20197;-63
2021/05/01 12:32:26;;;;;;;24.95;22.50;;;;;;;;;;5004832;28;20231;-60
2021/05/01 12:34:56;;;;;;;25.35;23.02;;;;;;;;;;5002766;28;20185;-64
2021/05/01 12:37:23;;;;;;;26.40;23.85;;;;;;;;;;5003913;28;20212;-63
2021/05/01 12:39:49;;;;;;;23.75;21.55;;;;;;;;;;5003412;28;20592;-64
2021/05/01 12:42:22;;;;;;;26.27;23.88;;;;;;;;;;5004307;28;20185;-63
2021/05/01 12:44:48;;;;;;;24.30;22.10;;;;;;;;;;5004721;28;20184;-64
2021/05/01 12:47:33;;;;;;;24.40;22.10;;;;;;;;;;5002127;28;20257;-63
2021/05/01 12:50:19;;;;;;;24.88;22.60;;;;;;;;;;5005850;28;20208;-63
2021/05/01 12:52:45;;;;;;;25.45;23.10;;;;;;;;;;5006510;28;20292;-63
2021/05/01 12:55:12;;;;;;;24.70;22.40;;;;;;;;;;5003662;28;20245;-62
2021/05/01 12:57:41;;;;;;;27.67;25.17;;;;;;;;;;5001208;28;20223;-63
2021/05/01 13:00:24;;;;;;;25.88;23.60;;;;;;;;;;5003942;28;20335;-64
2021/05/01 13:03:05;;;;;;;26.73;24.23;;;;;;;;;;5003346;28;20176;-62
2021/05/01 13:05:35;;;;;;;26.55;23.95;;;;;;;;;;5003785;28;20209;-64
2021/05/01 13:08:03;;;;;;;25.15;22.55;;;;;;;;;;5002819;28;20200;-63
2021/05/01 13:10:29;;;;;;;25.17;22.85;;;;;;;;;;5009004;28;20209;-62
2021/05/01 13:12:57;;;;;;;25.55;23.27;;;;;;;;;;4998222;28;20633;-65
2021/05/01 13:15:23;;;;;;;26.83;24.23;;;;;;;;;;5000370;28;20657;-65
2021/05/01 13:18:07;;;;;;;25.90;23.50;;;;;;;;;;5006565;28;20730;-62
2021/05/01 13:20:33;;;;;;;25.95;23.45;;;;;;;;;;5005765;28;20734;-62
2021/05/01 13:23:01;;;;;;;28.35;25.45;;;;;;;;;;5002598;28;20375;-63
2021/05/01 13:25:27;;;;;;;28.83;25.83;;;;;;;;;;5001103;28;20193;-64
2021/05/01 13:27:55;;;;;;;26.92;24.42;;;;;;;;;;5004388;28;20287;-64
2021/05/01 13:30:26;;;;;;;27.35;24.77;;;;;;;;;;5001986;28;20265;-62
2021/05/01 13:32:55;;;;;;;27.23;24.60;;;;;;;;;;5002260;28;20195;-64
2021/05/01 13:35:22;;;;;;;27.15;24.55;;;;;;;;;;5011762;28;20181;-62
2021/05/01 13:37:49;;;;;;;27.13;24.70;;;;;;;;;;5003470;28;20273;-63
2021/05/01 13:40:19;;;;;;;28.38;25.77;;;;;;;;;;5000485;28;20695;-62
2021/05/01 13:42:45;;;;;;;28.02;25.33;;;;;;;;;;5004545;28;20187;-64
2021/05/01 13:45:12;;;;;;;28.02;25.20;;;;;;;;;;5001946;28;20173;-63
2021/05/01 13:47:40;;;;;;;29.17;26.33;;;;;;;;;;5004780;28;20196;-62
2021/05/01 13:50:09;;;;;;;29.10;26.20;;;;;;;;;;5004244;28;20207;-63
2021/05/01 13:52:40;;;;;;;29.17;26.27;;;;;;;;;;4996478;28;20196;-64
2021/05/01 13:55:25;;;;;;;28.83;26.13;;;;;;;;;;5002588;28;20200;-64
2021/05/01 13:58:11;;;;;;;29.58;26.65;;;;;;;;;;4999258;28;20287;-62
2021/05/01 14:00:46;;;;;;;30.20;27.40;;;;;;;;;;5002612;28;20584;-64
2021/05/01 14:03:14;;;;;;;30.50;27.60;;;;;;;;;;5001542;28;20688;-63
2021/05/01 14:05:40;;;;;;;30.40;27.58;;;;;;;;;;5002378;28;20188;-64
2021/05/01 14:08:06;;;;;;;28.25;25.63;;;;;;;;;;5007584;28;20180;-63
2021/05/01 14:10:32;;;;;;;31.88;28.88;;;;;;;;;;5001529;28;20212;-63
2021/05/01 14:13:12;;;;;;;30.02;26.77;;;;;;;;;;5004657;28;20197;-64
2021/05/01 14:15:38;;;;;;;31.17;27.90;;;;;;;;;;5000334;28;20185;-62
2021/05/01 14:18:06;;;;;;;33.08;29.98;;;;;;;;;;5004662;28;20235;-63
2021/05/01 14:20:32;;;;;;;32.28;29.17;;;;;;;;;;5002833;28;20220;-62
2021/05/01 14:22:58;;;;;;;30.20;27.30;;;;;;;;;;4999171;28;20189;-64